Time;durP1;ratioP1;P1;durP2;ratioP2;P2;SDS_P1;SDS_P2;PMS_P1;PMS_P2;Temp;Humidity;BMP_temperature;BMP_pressure;BME280_temperature;BME280_humidity;BME280_pressure;Samples;Min_cycle;Max_cycle;Signal;HPM_P1;HPM_P2
2021/11/21 00:00:54;;;;;;;1999.90;999.90;;;0.80;99.90;;;;;;5114366;28;20479;-84
2021/11/21 00:03:20;;;;;;;1999.90;999.90;;;0.90;99.90;;;;;;5115408;28;20043;-82
2021/11/21 00:05:46;;;;;;;1999.90;999.90;;;0.90;99.90;;;;;;5114056;28;20024;-86
2021/11/21 00:08:13;;;;;;;1999.90;999.90;;;1.00;99.90;;;;;;5114229;28;20375;-80
2021/11/21 00:10:39;;;;;;;1999.90;999.90;;;0.90;99.90;;;;;;5114033;28;20073;-80
2021/11/21 00:13:05;;;;;;;1999.90;999.90;;;0.90;99.90;;;;;;5114126;28;20035;-86
2021/11/21 00:15:33;;;;;;;1999.90;999.90;;;1.00;99.90;;;;;;5117145;28;20409;-84
2021/11/21 00:17:59;;;;;;;1999.90;999.90;;;0.90;99.90;;;;;;5118111;28;20034;-80
2021/11/21 00:20:26;;;;;;;1999.90;999.90;;;1.00;99.90;;;;;;5118302;28;20061;-84
2021/11/21 00:22:51;;;;;;;1999.90;999.90;;;0.90;99.90;;;;;;5117902;28;20107;-80
2021/11/21 00:25:17;;;;;;;1999.90;999.90;;;0.90;99.90;;;;;;5117716;28;20066;-83
2021/11/21 00:27:43;;;;;;;1999.90;999.90;;;1.00;99.90;;;;;;5118003;28;20106;-85
2021/11/21 00:30:09;;;;;;;1999.90;999.90;;;0.90;99.90;;;;;;5117510;28;20019;-80
2021/11/21 00:32:35;;;;;;;1999.90;999.90;;;0.90;99.90;;;;;;5117464;28;20042;-83
2021/11/21 00:35:00;;;;;;;1999.90;999.90;;;1.00;99.90;;;;;;5117297;28;20020;-84
2021/11/21 00:37:28;;;;;;;1999.90;999.90;;;1.00;99.90;;;;;;5117807;28;20061;-84
2021/11/21 00:39:56;;;;;;;1999.90;999.90;;;1.00;99.90;;;;;;5117696;28;20024;-82
2021/11/21 00:42:22;;;;;;;1999.90;999.90;;;1.00;99.90;;;;;;5117446;28;20111;-79
2021/11/21 00:44:48;;;;;;;1999.90;999.90;;;1.00;99.90;;;;;;5117293;28;20039;-82
2021/11/21 00:47:14;;;;;;;1999.90;999.90;;;0.90;99.90;;;;;;5117099;28;20020;-84
2021/11/21 00:49:41;;;;;;;1999.90;999.90;;;1.00;99.90;;;;;;5117334;28;20038;-81
2021/11/21 00:52:08;;;;;;;1999.90;999.90;;;0.90;99.90;;;;;;5117387;28;20027;-81
2021/11/21 00:57:06;;;;;;;1999.90;999.90;;;0.80;99.90;;;;;;5118258;28;20425;-85
2021/11/21 00:59:33;;;;;;;1999.90;999.90;;;0.70;99.90;;;;;;5117117;28;20020;-84
2021/11/21 01:01:58;;;;;;;1999.90;999.90;;;0.80;99.90;;;;;;5116924;28;20099;-85
2021/11/21 01:04:24;;;;;;;1999.90;999.90;;;0.70;99.90;;;;;;5116968;28;20027;-85
2021/11/21 01:06:50;;;;;;;1999.90;999.90;;;0.70;99.90;;;;;;5117299;28;20542;-84
2021/11/21 01:09:18;;;;;;;1999.90;999.90;;;0.80;99.90;;;;;;5117608;28;20015;-79
2021/11/21 01:11:43;;;;;;;1999.90;999.90;;;0.70;99.90;;;;;;5120959;28;20024;-84
2021/11/21 01:14:09;;;;;;;1999.90;999.90;;;0.80;99.90;;;;;;5128259;28;20031;-83
2021/11/21 01:16:36;;;;;;;1999.90;999.90;;;0.80;99.90;;;;;;5127314;28;20020;-82
2021/11/21 01:19:02;;;;;;;1999.90;999.90;;;0.80;99.90;;;;;;5123771;28;20080;-85
2021/11/21 01:21:29;;;;;;;1999.90;999.90;;;0.80;99.90;;;;;;5116666;28;20019;-85
2021/11/21 01:23:55;;;;;;;1999.90;999.90;;;0.80;99.90;;;;;;5116427;28;20024;-80
2021/11/21 01:26:21;;;;;;;1999.90;999.90;;;0.70;99.90;;;;;;5115302;28;20024;-85
2021/11/21 01:28:47;;;;;;;1999.90;999.90;;;0.80;99.90;;;;;;5116562;28;20019;-82
2021/11/21 01:31:13;;;;;;;1999.90;999.90;;;0.90;99.90;;;;;;5116201;28;20046;-85
2021/11/21 01:33:39;;;;;;;1999.90;999.90;;;0.80;99.90;;;;;;5115744;28;20472;-84
2021/11/21 01:36:05;;;;;;;1999.90;999.90;;;0.80;99.90;;;;;;5116542;28;20019;-85
2021/11/21 01:38:31;;;;;;;1999.90;999.90;;;0.60;99.90;;;;;;5116187;28;20037;-84
2021/11/21 01:40:57;;;;;;;1999.90;999.90;;;0.60;99.90;;;;;;5115451;28;20531;-82
2021/11/21 01:43:24;;;;;;;1999.90;999.90;;;0.60;99.90;;;;;;5117120;27;20024;-84
2021/11/21 01:45:50;;;;;;;1999.90;999.90;;;0.60;99.90;;;;;;5115864;28;20050;-83
2021/11/21 01:48:15;;;;;;;1999.90;999.90;;;0.60;99.90;;;;;;5116033;28;20077;-84
2021/11/21 01:50:43;;;;;;;1999.90;999.90;;;0.60;99.90;;;;;;5116163;28;20051;-83
2021/11/21 01:53:09;;;;;;;1999.90;999.90;;;0.50;99.90;;;;;;5115708;28;20032;-83
2021/11/21 01:55:36;;;;;;;1999.90;999.90;;;0.60;99.90;;;;;;5115790;28;20110;-81
2021/11/21 01:58:02;;;;;;;1999.90;999.90;;;0.50;99.90;;;;;;5116379;28;20027;-83
2021/11/21 02:00:31;;;;;;;1999.90;999.90;;;0.60;99.90;;;;;;5115510;28;20035;-83
2021/11/21 02:02:57;;;;;;;1999.90;999.90;;;0.60;99.90;;;;;;5115607;28;20051;-81
2021/11/21 02:05:22;;;;;;;1999.90;999.90;;;0.60;99.90;;;;;;5115245;28;20030;-85
2021/11/21 02:07:49;;;;;;;1999.90;999.90;;;0.50;99.90;;;;;;5115636;28;20023;-81
2021/11/21 02:10:19;;;;;;;1999.90;999.90;;;0.50;99.90;;;;;;5115175;28;20477;-83
2021/11/21 02:12:45;;;;;;;1999.90;999.90;;;0.60;99.90;;;;;;5115265;28;20470;-83
2021/11/21 02:15:15;;;;;;;1999.90;999.90;;;0.60;99.90;;;;;;5115101;28;20386;-81
2021/11/21 02:17:41;;;;;;;1999.90;999.90;;;0.50;99.90;;;;;;5116068;28;20030;-84
2021/11/21 02:20:13;;;;;;;1999.90;999.90;;;0.50;99.90;;;;;;5114917;28;20027;-84
2021/11/21 02:22:41;;;;;;;1999.90;999.90;;;0.50;99.90;;;;;;5115566;28;20121;-80
2021/11/21 02:25:11;;;;;;;1999.90;999.90;;;0.60;99.90;;;;;;5116610;27;20034;-86
2021/11/21 02:27:37;;;;;;;1999.90;999.90;;;0.50;99.90;;;;;;5114852;28;20452;-85
2021/11/21 02:30:05;;;;;;;1999.90;999.90;;;0.50;99.90;;;;;;5114755;28;20028;-81
2021/11/21 02:32:31;;;;;;;1999.90;999.90;;;0.40;99.90;;;;;;5114643;28;20118;-80
2021/11/21 02:34:57;;;;;;;1999.90;999.90;;;0.40;99.90;;;;;;5114657;28;20119;-85
2021/11/21 02:37:23;;;;;;;1999.90;999.90;;;0.40;99.90;;;;;;5114625;27;20034;-81
2021/11/21 02:39:48;;;;;;;1999.90;999.90;;;0.40;99.90;;;;;;5114518;28;20031;-83
2021/11/21 02:42:29;;;;;;;1999.90;999.90;;;0.40;99.90;;;;;;5114791;28;20030;-82
2021/11/21 02:44:55;;;;;;;1999.90;999.90;;;0.40;99.90;;;;;;5114542;28;20497;-80
2021/11/21 02:47:21;;;;;;;1999.90;999.90;;;0.40;99.90;;;;;;5114943;28;20020;-84
2021/11/21 02:49:48;;;;;;;1999.90;999.90;;;0.40;99.90;;;;;;5114770;28;20467;-84
2021/11/21 02:52:13;;;;;;;1999.90;999.90;;;0.20;99.90;;;;;;5114457;28;20034;-83
2021/11/21 02:54:52;;;;;;;1999.90;999.90;;;0.30;99.90;;;;;;5116001;28;20027;-83
2021/11/21 02:57:19;;;;;;;1999.90;999.90;;;0.30;99.90;;;;;;5114797;28;20050;-84
2021/11/21 02:59:44;;;;;;;1999.90;999.90;;;0.40;99.90;;;;;;5114452;28;20028;-84
2021/11/21 03:02:10;;;;;;;1999.90;999.90;;;0.40;99.90;;;;;;5114457;28;20142;-81
2021/11/21 03:04:36;;;;;;;1999.90;999.90;;;0.40;99.90;;;;;;5115571;28;20031;-82
2021/11/21 03:07:02;;;;;;;1999.90;999.90;;;0.30;99.90;;;;;;5116009;28;20106;-81
2021/11/21 03:09:28;;;;;;;1999.90;999.90;;;0.30;99.90;;;;;;5115615;28;20584;-84
2021/11/21 03:11:54;;;;;;;1999.90;999.90;;;0.40;99.90;;;;;;5113863;28;20375;-80
2021/11/21 03:14:20;;;;;;;1999.90;999.90;;;0.40;99.90;;;;;;5114590;28;20352;-84
2021/11/21 03:16:47;;;;;;;1999.90;999.90;;;0.30;99.90;;;;;;5114321;28;20077;-83
2021/11/21 03:19:13;;;;;;;1999.90;999.90;;;0.20;99.90;;;;;;5115206;28;20028;-81
2021/11/21 03:21:39;;;;;;;1999.90;999.90;;;0.20;99.90;;;;;;5114317;28;20028;-85
2021/11/21 03:24:05;;;;;;;1999.90;999.90;;;0.20;99.90;;;;;;5114554;28;20031;-83
2021/11/21 03:26:31;;;;;;;1999.90;999.90;;;0.30;99.90;;;;;;5115321;28;20024;-84
2021/11/21 03:28:56;;;;;;;1999.90;999.90;;;0.40;99.90;;;;;;5114525;28;20062;-84
2021/11/21 03:31:22;;;;;;;1999.90;999.90;;;0.20;99.90;;;;;;5114092;28;20081;-81
2021/11/21 03:33:48;;;;;;;1999.90;999.90;;;0.20;99.90;;;;;;5114002;28;20040;-82
2021/11/21 03:36:14;;;;;;;1999.90;999.90;;;0.20;99.90;;;;;;5113754;28;20024;-85
2021/11/21 03:38:40;;;;;;;1999.90;999.90;;;0.20;99.90;;;;;;5114107;28;20050;-81
2021/11/21 03:41:06;;;;;;;1999.90;999.90;;;0.30;99.90;;;;;;5113817;28;20020;-82
2021/11/21 03:43:32;;;;;;;1999.90;999.90;;;0.30;99.90;;;;;;5114423;28;20028;-80
2021/11/21 03:45:58;;;;;;;1999.90;999.90;;;0.20;99.90;;;;;;5114008;28;20028;-82
2021/11/21 03:48:23;;;;;;;1999.90;999.90;;;0.30;99.90;;;;;;5113913;28;20122;-79
2021/11/21 03:50:50;;;;;;;1999.90;999.90;;;0.20;99.90;;;;;;5117673;28;20479;-83
2021/11/21 03:53:16;;;;;;;1999.90;999.90;;;0.30;99.90;;;;;;5118354;28;20035;-81
2021/11/21 03:55:42;;;;;;;1999.90;999.90;;;0.20;99.90;;;;;;5118115;28;20027;-84
2021/11/21 03:58:08;;;;;;;1999.90;999.90;;;0.20;99.90;;;;;;5118932;28;20098;-80
2021/11/21 04:00:34;;;;;;;1999.90;999.90;;;0.10;99.90;;;;;;5117587;28;20382;-85
2021/11/21 04:03:00;;;;;;;1999.90;999.90;;;0.10;99.90;;;;;;5117653;28;20097;-84
2021/11/21 04:05:26;;;;;;;1999.90;999.90;;;0.20;99.90;;;;;;5117683;28;20051;-81
2021/11/21 04:07:51;;;;;;;1999.90;999.90;;;0.10;99.90;;;;;;5117833;28;20023;-82
2021/11/21 04:10:18;;;;;;;1999.90;999.90;;;0.10;99.90;;;;;;5117856;28;20098;-79
2021/11/21 04:12:44;;;;;;;1999.90;999.90;;;0.10;99.90;;;;;;5117498;28;20035;-81
2021/11/21 04:15:10;;;;;;;1999.90;999.90;;;-0.10;99.90;;;;;;5117502;28;20027;-81
2021/11/21 04:17:36;;;;;;;1999.90;999.90;;;0.00;99.90;;;;;;5117674;28;20088;-83
2021/11/21 04:20:04;;;;;;;1999.90;999.90;;;0.10;99.90;;;;;;5117443;28;20055;-81
2021/11/21 04:22:30;;;;;;;1999.90;999.90;;;0.00;99.90;;;;;;5117386;28;20037;-82
2021/11/21 04:24:57;;;;;;;1999.90;999.90;;;0.10;99.90;;;;;;5118374;28;20471;-85
2021/11/21 04:27:25;;;;;;;1999.90;999.90;;;0.10;99.90;;;;;;5117424;28;20104;-82
2021/11/21 04:29:51;;;;;;;1999.90;999.90;;;0.10;99.90;;;;;;5117124;28;20027;-82
2021/11/21 04:32:16;;;;;;;1999.90;999.90;;;0.10;99.90;;;;;;5117342;28;20034;-84
2021/11/21 04:34:42;;;;;;;1999.90;999.90;;;0.20;99.90;;;;;;5117336;28;20169;-85
2021/11/21 04:37:08;;;;;;;1999.90;999.90;;;0.20;99.90;;;;;;5117944;28;20466;-85
2021/11/21 04:39:33;;;;;;;1999.90;999.90;;;0.10;99.90;;;;;;5117540;28;20028;-83
2021/11/21 04:41:59;;;;;;;1999.90;999.90;;;0.20;99.90;;;;;;5117481;28;20529;-83
2021/11/21 04:44:25;;;;;;;1999.90;999.90;;;0.20;99.90;;;;;;5117683;28;20118;-84
2021/11/21 04:46:50;;;;;;;1999.90;999.90;;;0.20;99.90;;;;;;5117778;28;20128;-81
2021/11/21 04:49:16;;;;;;;1999.90;999.90;;;0.20;99.90;;;;;;5117049;28;20059;-82
2021/11/21 04:51:42;;;;;;;1999.90;999.90;;;0.20;99.90;;;;;;5118524;28;20023;-83
2021/11/21 04:54:15;;;;;;;1999.90;999.90;;;0.30;99.90;;;;;;5117078;28;20047;-85
2021/11/21 04:56:44;;;;;;;1999.90;999.90;;;0.40;99.90;;;;;;5117249;28;20019;-80
2021/11/21 04:59:10;;;;;;;1999.90;999.90;;;0.30;99.90;;;;;;5100494;28;20037;-79
2021/11/21 05:01:36;;;;;;;1999.90;999.90;;;0.30;99.90;;;;;;5115685;28;20126;-84
2021/11/21 05:04:01;;;;;;;1999.90;999.90;;;0.30;99.90;;;;;;5116953;28;20027;-84
2021/11/21 05:06:27;;;;;;;1999.90;999.90;;;0.30;99.90;;;;;;5117532;28;20667;-83
2021/11/21 05:08:53;;;;;;;1999.90;999.90;;;0.40;99.90;;;;;;5117508;28;20463;-85
2021/11/21 05:11:19;;;;;;;1999.90;999.90;;;0.40;99.90;;;;;;5117031;28;20027;-85
2021/11/21 05:13:44;;;;;;;1999.90;999.90;;;0.40;99.90;;;;;;5116808;28;20039;-85
2021/11/21 05:16:10;;;;;;;1999.90;999.90;;;0.40;99.90;;;;;;5118256;28;20081;-80
2021/11/21 05:18:35;;;;;;;1999.90;999.90;;;0.40;99.90;;;;;;5116579;28;20031;-84
2021/11/21 05:21:01;;;;;;;1999.90;999.90;;;0.50;99.90;;;;;;5116951;28;20024;-81
2021/11/21 05:23:27;;;;;;;1999.90;999.90;;;0.50;99.90;;;;;;5116544;28;20122;-80
2021/11/21 05:25:52;;;;;;;1999.90;999.90;;;0.60;99.90;;;;;;5116179;28;20036;-80
2021/11/21 05:28:18;;;;;;;1999.90;999.90;;;0.70;99.90;;;;;;5116513;28;20433;-82
2021/11/21 05:30:47;;;;;;;1999.90;999.90;;;0.60;99.90;;;;;;5117661;28;20431;-83
2021/11/21 05:33:14;;;;;;;1999.90;999.90;;;0.50;99.90;;;;;;5116240;28;20539;-80
2021/11/21 05:35:40;;;;;;;1999.90;999.90;;;0.60;99.90;;;;;;5116766;28;20024;-82
2021/11/21 05:38:05;;;;;;;1999.90;999.90;;;0.50;99.90;;;;;;5116632;28;20020;-84
2021/11/21 05:40:31;;;;;;;1999.90;999.90;;;0.60;99.90;;;;;;5116612;28;20016;-82
2021/11/21 05:42:57;;;;;;;1999.90;999.90;;;0.60;99.90;;;;;;5100066;28;20115;-81
2021/11/21 05:45:23;;;;;;;1999.90;999.90;;;0.70;99.90;;;;;;5117589;28;20106;-84
2021/11/21 05:47:49;;;;;;;1999.90;999.90;;;0.80;99.90;;;;;;5116336;28;20080;-81
2021/11/21 05:50:16;;;;;;;1999.90;999.90;;;0.80;99.90;;;;;;5117335;28;20673;-83
2021/11/21 05:52:47;;;;;;;1999.90;999.90;;;0.90;99.90;;;;;;5116164;28;20067;-84
2021/11/21 05:55:15;;;;;;;1999.90;999.90;;;0.80;99.90;;;;;;5116174;28;20031;-81
2021/11/21 05:57:40;;;;;;;1999.90;999.90;;;0.70;99.90;;;;;;5116562;28;20031;-83
2021/11/21 06:00:11;;;;;;;1999.90;999.90;;;0.90;99.90;;;;;;5115872;28;20577;-85
2021/11/21 06:02:37;;;;;;;1999.90;999.90;;;0.80;99.90;;;;;;5116056;28;20063;-85
2021/11/21 06:05:04;;;;;;;1999.90;999.90;;;0.70;99.90;;;;;;5117394;28;20535;-85
2021/11/21 06:07:29;;;;;;;1999.90;999.90;;;0.80;99.90;;;;;;5126424;28;20020;-84
2021/11/21 06:09:55;;;;;;;1999.90;999.90;;;0.80;99.90;;;;;;5126862;28;20027;-85
2021/11/21 06:12:21;;;;;;;1999.90;999.90;;;0.80;99.90;;;;;;5122098;28;20639;-84
2021/11/21 06:14:46;;;;;;;1999.90;999.90;;;0.90;99.90;;;;;;5116469;28;20024;-82
2021/11/21 06:17:12;;;;;;;1999.90;999.90;;;0.80;99.90;;;;;;5116069;28;20106;-80
2021/11/21 06:19:39;;;;;;;1999.90;999.90;;;0.80;99.90;;;;;;5116215;28;20031;-84
2021/11/21 06:22:05;;;;;;;1999.90;999.90;;;0.80;99.90;;;;;;5115942;28;20024;-85
2021/11/21 06:24:31;;;;;;;1999.90;999.90;;;0.90;99.90;;;;;;5116161;28;20382;-85
2021/11/21 06:26:58;;;;;;;1999.90;999.90;;;0.90;99.90;;;;;;5116437;28;20031;-84
2021/11/21 06:29:23;;;;;;;1999.90;999.90;;;0.90;99.90;;;;;;5116138;28;20061;-85
2021/11/21 06:31:50;;;;;;;1999.90;999.90;;;1.10;99.90;;;;;;5116177;28;20030;-86
2021/11/21 06:34:16;;;;;;;1999.90;999.90;;;0.90;99.90;;;;;;5114984;28;20122;-80
2021/11/21 06:36:42;;;;;;;1999.90;999.90;;;1.00;99.90;;;;;;5115562;28;20051;-84
2021/11/21 06:39:08;;;;;;;1999.90;999.90;;;0.90;99.90;;;;;;5115820;28;20051;-84
2021/11/21 06:41:37;;;;;;;1999.90;999.90;;;1.50;99.90;;;;;;5117474;28;20463;-84
2021/11/21 06:44:05;;;;;;;1999.90;999.90;;;1.30;99.90;;;;;;5117108;28;20035;-85
2021/11/21 06:46:31;;;;;;;1999.90;999.90;;;1.10;99.90;;;;;;5117033;28;20031;-85
2021/11/21 06:48:58;;;;;;;1999.90;999.90;;;1.00;99.90;;;;;;5115433;28;20028;-86
2021/11/21 06:51:24;;;;;;;1999.90;999.90;;;0.90;99.90;;;;;;5116214;28;20081;-84
2021/11/21 06:53:49;;;;;;;1999.90;999.90;;;0.90;99.90;;;;;;5116714;28;20027;-81
2021/11/21 06:56:17;;;;;;;1999.90;999.90;;;0.80;99.90;;;;;;5116662;28;20093;-84
2021/11/21 06:58:43;;;;;;;1999.90;999.90;;;0.90;99.90;;;;;;5100063;28;20088;-81
2021/11/21 07:01:09;;;;;;;1999.90;999.90;;;0.90;99.90;;;;;;5118645;28;20035;-84
2021/11/21 07:03:35;;;;;;;1999.90;999.90;;;1.10;99.90;;;;;;5116231;27;20030;-86
2021/11/21 07:06:01;;;;;;;1999.90;999.90;;;1.00;99.90;;;;;;5117074;28;20031;-84
2021/11/21 07:08:27;;;;;;;1999.90;999.90;;;1.20;99.90;;;;;;5116600;28;20027;-85
2021/11/21 07:10:53;;;;;;;1999.90;999.90;;;1.40;99.90;;;;;;5117315;28;20527;-84
2021/11/21 07:13:21;;;;;;;1999.90;999.90;;;1.00;99.90;;;;;;5116226;28;20525;-83
2021/11/21 07:15:47;;;;;;;1999.90;999.90;;;1.00;99.90;;;;;;5115889;28;20016;-86
2021/11/21 07:18:13;;;;;;;1999.90;999.90;;;1.00;99.90;;;;;;5115968;28;20027;-84
2021/11/21 07:20:39;;;;;;;1999.90;999.90;;;1.10;99.90;;;;;;5116558;28;20424;-85
2021/11/21 07:23:05;;;;;;;1999.90;999.90;;;1.00;99.90;;;;;;5115623;28;20646;-86
2021/11/21 07:25:31;;;;;;;1999.90;999.90;;;1.10;99.90;;;;;;5115557;28;20039;-84
2021/11/21 07:27:57;;;;;;;1999.90;999.90;;;1.10;99.90;;;;;;5116050;28;20024;-83
2021/11/21 07:30:23;;;;;;;1999.90;999.90;;;1.20;99.90;;;;;;5115504;28;20020;-84
2021/11/21 07:32:53;;;;;;;1999.90;999.90;;;1.10;99.90;;;;;;5115858;28;20116;-86
2021/11/21 07:35:20;;;;;;;1999.90;999.90;;;1.10;99.90;;;;;;5115996;28;20024;-86
2021/11/21 07:37:47;;;;;;;1999.90;999.90;;;1.30;99.90;;;;;;5115866;28;20022;-86
2021/11/21 07:40:13;;;;;;;1999.90;999.90;;;1.20;99.90;;;;;;5115868;28;20520;-85
2021/11/21 07:42:40;;;;;;;1999.90;999.90;;;1.20;99.90;;;;;;5116007;28;20020;-84
2021/11/21 07:45:08;;;;;;;1999.90;999.90;;;1.30;99.90;;;;;;5116449;28;20023;-84
2021/11/21 07:47:34;;;;;;;1999.90;999.90;;;1.30;99.90;;;;;;5115985;28;20052;-87
2021/11/21 07:49:59;;;;;;;1999.90;999.90;;;1.30;99.90;;;;;;5116989;28;20028;-84
2021/11/21 07:52:26;;;;;;;1999.90;999.90;;;1.30;99.90;;;;;;5115912;28;20478;-85
2021/11/21 07:54:52;;;;;;;1999.90;999.90;;;1.40;99.90;;;;;;5115865;28;20032;-85
2021/11/21 07:57:18;;;;;;;1999.90;999.90;;;1.50;99.90;;;;;;5116905;28;20140;-83
2021/11/21 07:59:44;;;;;;;1999.90;999.90;;;1.50;99.90;;;;;;5115979;28;20047;-85
2021/11/21 08:02:10;;;;;;;1999.90;999.90;;;1.50;99.90;;;;;;5115199;28;20043;-85
2021/11/21 08:04:35;;;;;;;1999.90;999.90;;;1.50;99.90;;;;;;5114836;28;20035;-84
2021/11/21 08:07:02;;;;;;;1999.90;999.90;;;1.50;99.90;;;;;;5115759;28;20023;-84
2021/11/21 08:09:27;;;;;;;1999.90;999.90;;;1.60;99.90;;;;;;5115585;28;20591;-85
2021/11/21 08:11:53;;;;;;;1999.90;999.90;;;1.80;99.90;;;;;;5115260;28;20073;-82
2021/11/21 08:14:19;;;;;;;1999.90;999.90;;;1.80;99.90;;;;;;5115371;28;20433;-85
2021/11/21 08:16:44;;;;;;;1999.90;999.90;;;1.90;99.90;;;;;;5115319;28;20016;-85
2021/11/21 08:19:11;;;;;;;1999.90;999.90;;;2.00;99.90;;;;;;5115278;28;20027;-83
2021/11/21 08:21:37;;;;;;;1999.90;999.90;;;1.90;99.90;;;;;;5114744;28;20020;-84
2021/11/21 08:24:04;;;;;;;1999.90;999.90;;;2.10;99.90;;;;;;5115359;28;20024;-82
2021/11/21 08:26:30;;;;;;;1999.90;999.90;;;2.00;99.90;;;;;;5114214;28;20024;-82
2021/11/21 08:28:56;;;;;;;1999.90;999.90;;;2.20;99.90;;;;;;5115014;28;20081;-85
2021/11/21 08:31:21;;;;;;;1999.90;999.90;;;2.20;99.90;;;;;;5115515;28;20028;-83
2021/11/21 08:33:47;;;;;;;1999.90;999.90;;;2.30;99.90;;;;;;5114257;28;20072;-82
2021/11/21 08:36:13;;;;;;;1999.90;999.90;;;2.20;99.90;;;;;;5116829;28;20019;-86
2021/11/21 08:38:39;;;;;;;1999.90;999.90;;;2.30;99.90;;;;;;5118113;28;20429;-85
2021/11/21 08:41:05;;;;;;;1999.90;999.90;;;2.30;99.90;;;;;;5118424;28;20073;-84
2021/11/21 08:43:30;;;;;;;1999.90;999.90;;;2.40;99.90;;;;;;5118617;28;20028;-83
2021/11/21 08:45:56;;;;;;;1999.90;999.90;;;2.50;99.90;;;;;;5119190;28;20026;-84
2021/11/21 08:48:22;;;;;;;1999.90;999.90;;;2.40;99.90;;;;;;5117642;28;20497;-83
2021/11/21 08:50:48;;;;;;;1999.90;999.90;;;2.50;99.90;;;;;;5117719;28;20019;-85
2021/11/21 08:53:14;;;;;;;1999.90;999.90;;;2.30;99.90;;;;;;5117869;28;20028;-86
2021/11/21 08:55:40;;;;;;;1999.90;999.90;;;2.50;99.90;;;;;;5117744;28;20035;-85
2021/11/21 08:58:06;;;;;;;1999.90;999.90;;;2.60;99.90;;;;;;5117467;28;20031;-83
2021/11/21 09:00:32;;;;;;;1999.90;999.90;;;2.60;99.90;;;;;;5117754;28;20092;-87
2021/11/21 09:02:58;;;;;;;1999.90;999.90;;;2.80;99.90;;;;;;5117541;28;20407;-83
2021/11/21 09:05:24;;;;;;;1999.90;999.90;;;2.80;99.90;;;;;;5117449;28;20032;-84
2021/11/21 09:07:49;;;;;;;1999.90;999.90;;;2.80;99.90;;;;;;5116130;28;20398;-80
2021/11/21 09:10:19;;;;;;;1999.90;999.90;;;2.90;99.90;;;;;;5115345;28;20538;-83
2021/11/21 09:12:46;;;;;;;1999.90;999.90;;;3.00;99.90;;;;;;5117790;28;20038;-86
2021/11/21 09:15:14;;;;;;;1999.90;999.90;;;3.10;99.90;;;;;;5118074;28;20087;-85
2021/11/21 09:17:42;;;;;;;1999.90;999.90;;;3.10;99.90;;;;;;5118520;28;20031;-86
2021/11/21 09:20:08;;;;;;;1999.90;999.90;;;3.20;99.90;;;;;;5119642;28;20423;-84
2021/11/21 09:22:34;;;;;;;1999.90;999.90;;;3.30;99.90;;;;;;5120716;28;20063;-85
2021/11/21 09:25:00;;;;;;;1999.90;999.90;;;3.40;99.90;;;;;;5119022;28;20062;-85
2021/11/21 09:27:26;;;;;;;1999.90;999.90;;;3.50;99.90;;;;;;5116112;28;20031;-84
2021/11/21 09:29:52;;;;;;;1999.90;999.90;;;3.60;99.90;;;;;;5117284;28;20340;-81
2021/11/21 09:32:18;;;;;;;1999.90;999.90;;;3.70;99.90;;;;;;5115899;28;20055;-84
2021/11/21 09:34:43;;;;;;;1999.90;999.90;;;3.70;99.90;;;;;;5119233;28;20397;-84
2021/11/21 09:37:10;;;;;;;1999.90;999.90;;;3.70;99.90;;;;;;5130362;28;20023;-86
2021/11/21 09:39:36;;;;;;;1999.90;999.90;;;3.70;99.90;;;;;;5105255;28;20058;-80
2021/11/21 09:42:03;;;;;;;1999.90;999.90;;;3.70;99.90;;;;;;5116294;28;20016;-85
2021/11/21 09:44:29;;;;;;;1999.90;999.90;;;3.80;99.90;;;;;;5116968;28;20095;-84
2021/11/21 09:46:55;;;;;;;1999.90;999.90;;;4.00;99.90;;;;;;5117847;28;20077;-86
2021/11/21 09:49:24;;;;;;;1999.90;999.90;;;4.00;99.90;;;;;;5117948;28;20016;-84
2021/11/21 09:51:50;;;;;;;1999.90;999.90;;;4.00;99.90;;;;;;5117657;28;20028;-86
2021/11/21 09:54:16;;;;;;;1999.90;999.90;;;4.00;99.90;;;;;;5116430;28;20411;-86
2021/11/21 09:56:43;;;;;;;1999.90;999.90;;;4.10;99.90;;;;;;5118071;28;20066;-84
2021/11/21 09:59:09;;;;;;;1999.90;999.90;;;4.30;99.90;;;;;;5118787;28;20055;-84
2021/11/21 10:01:42;;;;;;;1999.90;999.90;;;4.30;99.90;;;;;;5116635;28;20051;-84
2021/11/21 10:04:10;;;;;;;1999.90;999.90;;;4.40;99.90;;;;;;5115860;28;20063;-82
2021/11/21 10:06:45;;;;;;;1999.90;999.90;;;4.40;99.90;;;;;;5115393;28;20027;-86
2021/11/21 10:09:18;;;;;;;1999.90;999.90;;;4.40;99.90;;;;;;5115424;28;20023;-83
2021/11/21 10:12:05;;;;;;;1999.90;999.90;;;4.40;99.90;;;;;;5115297;28;20023;-82
2021/11/21 10:14:32;;;;;;;1999.90;999.90;;;4.50;99.90;;;;;;5115183;28;20122;-87
2021/11/21 10:16:58;;;;;;;1999.90;999.90;;;5.10;99.90;;;;;;5115548;28;20032;-87
2021/11/21 10:19:23;;;;;;;1999.90;999.90;;;5.60;99.90;;;;;;5114677;28;20133;-82
2021/11/21 10:21:53;;;;;;;1999.90;999.90;;;5.50;99.90;;;;;;5114964;28;20023;-85
2021/11/21 10:24:26;;;;;;;1999.90;999.90;;;5.30;99.90;;;;;;5114877;28;20420;-84
2021/11/21 10:27:05;;;;;;;1999.90;999.90;;;5.20;99.90;;;;;;5115346;28;20027;-84
2021/11/21 10:29:36;;;;;;;1999.90;999.90;;;5.10;99.90;;;;;;5117178;28;20027;-83
2021/11/21 10:32:16;;;;;;;1999.90;999.90;;;4.90;99.90;;;;;;5116310;28;20518;-83
2021/11/21 10:34:53;;;;;;;1999.90;999.90;;;4.90;99.90;;;;;;5113389;28;20039;-80
2021/11/21 10:37:26;;;;;;;1999.90;999.90;;;5.60;99.90;;;;;;5115775;28;20050;-85
2021/11/21 10:39:52;;;;;;;1999.90;999.90;;;5.60;99.90;;;;;;5115930;28;20019;-85
2021/11/21 10:42:23;;;;;;;1999.90;999.90;;;5.40;99.90;;;;;;5116300;28;20023;-84
2021/11/21 10:44:50;;;;;;;1999.90;999.90;;;5.20;99.90;;;;;;5115390;28;20023;-85
2021/11/21 10:47:16;;;;;;;1999.90;999.90;;;5.10;99.90;;;;;;5115357;28;20106;-84
2021/11/21 10:49:42;;;;;;;1999.90;999.90;;;5.20;99.90;;;;;;5114933;28;20548;-86
2021/11/21 10:52:13;;;;;;;1999.90;999.90;;;5.10;99.90;;;;;;5114895;28;20475;-85
2021/11/21 10:54:40;;;;;;;1999.90;999.90;;;5.00;99.90;;;;;;5115696;28;20031;-82
2021/11/21 10:57:10;;;;;;;1999.90;999.90;;;4.90;99.90;;;;;;5114382;28;20028;-82
2021/11/21 10:59:36;;;;;;;1999.90;999.90;;;4.90;99.90;;;;;;5113912;28;20074;-84
2021/11/21 11:02:07;;;;;;;1999.90;999.90;;;4.90;99.90;;;;;;5114453;28;20546;-84
2021/11/21 11:04:33;;;;;;;1999.90;999.90;;;5.00;99.90;;;;;;5114093;28;20051;-84
2021/11/21 11:07:10;;;;;;;1999.90;999.90;;;;;;;;;;5113956;28;20115;-83
2021/11/21 11:09:36;;;;;;;1999.90;999.90;;;;;;;;;;5115342;28;20068;-86
2021/11/21 11:12:02;;;;;;;1999.90;999.90;;;;;;;;;;5114338;28;20746;-82
2021/11/21 11:14:28;;;;;;;1999.90;999.90;;;;;;;;;;5115875;28;20047;-84
2021/11/21 11:16:55;;;;;;;1999.90;999.90;;;;;;;;;;5115016;28;20023;-85
2021/11/21 11:19:24;;;;;;;1999.90;999.90;;;;;;;;;;5114991;28;20034;-85
2021/11/21 11:21:50;;;;;;;1999.90;999.90;;;;;;;;;;5114739;28;20027;-86
2021/11/21 11:24:22;;;;;;;1999.90;999.90;;;;;;;;;;5115043;28;20352;-85
2021/11/21 11:26:54;;;;;;;1999.90;999.90;;;;;;;;;;5115207;28;20148;-84
2021/11/21 11:29:21;;;;;;;1999.90;999.90;;;;;;;;;;5114802;28;20118;-85
2021/11/21 11:31:49;;;;;;;1999.90;999.90;;;;;;;;;;5114456;28;20119;-85
2021/11/21 11:34:34;;;;;;;1999.90;999.90;;;;;;;;;;5114499;28;20067;-87
2021/11/21 11:37:00;;;;;;;1999.90;999.90;;;;;;;;;;5115422;28;20023;-83
2021/11/21 11:39:38;;;;;;;1999.90;999.90;;;;;;;;;;5114599;28;20119;-84
2021/11/21 11:42:24;;;;;;;1999.90;999.90;;;;;;;;;;5114700;28;20022;-86
2021/11/21 11:44:53;;;;;;;1999.90;999.90;;;;;;;;;;5114109;28;20024;-85
2021/11/21 11:47:27;;;;;;;1999.90;999.90;;;;;;;;;;5114651;28;20027;-83
2021/11/21 11:49:53;;;;;;;1999.90;999.90;;;;;;;;;;5115687;28;20051;-85
2021/11/21 11:52:38;;;;;;;1999.90;999.90;;;;;;;;;;5114746;28;20019;-84
2021/11/21 11:55:08;;;;;;;1999.90;999.90;;;;;;;;;;5114839;28;20039;-86
2021/11/21 11:57:35;;;;;;;1999.90;999.90;;;;;;;;;;5114435;28;20023;-85
2021/11/21 12:00:20;;;;;;;1999.90;999.90;;;;;;;;;;5114697;28;20126;-86
2021/11/21 12:02:47;;;;;;;1999.90;999.90;;;;;;;;;;5113818;28;20055;-84
2021/11/21 12:05:13;;;;;;;1999.90;999.90;;;;;;;;;;5113136;28;20019;-82
2021/11/21 12:07:42;;;;;;;1999.90;999.90;;;;;;;;;;5112930;28;20077;-81
2021/11/21 12:10:09;;;;;;;1999.90;999.90;;;;;;;;;;5114956;28;20015;-84
2021/11/21 12:12:51;;;;;;;1999.90;999.90;;;;;;;;;;5117875;28;20510;-86
2021/11/21 12:15:31;;;;;;;1999.90;999.90;;;;;;;;;;5118193;28;20024;-84
2021/11/21 12:17:58;;;;;;;1999.90;999.90;;;;;;;;;;5118621;28;20024;-84